sensor_id;sensor_type;location;lat;lon;timestamp;temperature;humidity
4904;DHT22;2467;48.142;11.616;2023-01-19T00:00:12;0.80;99.90
4904;DHT22;2467;48.142;11.616;2023-01-19T00:00:45;0.80;99.90
4904;DHT22;2467;48.142;11.616;2023-01-19T00:01:17;0.80;99.90
4904;DHT22;2467;48.142;11.616;2023-01-19T00:01:50;0.80;99.90
4904;DHT22;2467;48.142;11.616;2023-01-19T00:02:22;0.90;99.90
4904;DHT22;2467;48.142;11.616;2023-01-19T00:02:54;0.80;99.90
4904;DHT22;2467;48.142;11.616;2023-01-19T00:03:27;0.80;99.90
4904;DHT22;2467;48.142;11.616;2023-01-19T00:03:58;0.80;99.90
4904;DHT22;2467;48.142;11.616;2023-01-19T00:04:30;0.90;99.90
4904;DHT22;2467;48.142;11.616;2023-01-19T00:05:04;0.90;99.90
4904;DHT22;2467;48.142;11.616;2023-01-19T00:05:35;0.90;99.90
4904;DHT22;2467;48.142;11.616;2023-01-19T00:06:08;0.90;99.90
4904;DHT22;2467;48.142;11.616;2023-01-19T00:06:41;0.90;99.90
4904;DHT22;2467;48.142;11.616;2023-01-19T00:07:14;0.80;99.90
4904;DHT22;2467;48.142;11.616;2023-01-19T00:07:47;0.80;99.90
4904;DHT22;2467;48.142;11.616;2023-01-19T00:08:20;0.80;99.90
4904;DHT22;2467;48.142;11.616;2023-01-19T00:08:52;0.70;99.90
4904;DHT22;2467;48.142;11.616;2023-01-19T00:09:25;0.80;99.90
4904;DHT22;2467;48.142;11.616;2023-01-19T00:09:58;0.70;99.90
4904;DHT22;2467;48.142;11.616;2023-01-19T00:10:30;0.70;99.90
4904;DHT22;2467;48.142;11.616;2023-01-19T00:11:03;0.70;99.90
4904;DHT22;2467;48.142;11.616;2023-01-19T00:11:35;0.70;99.90
4904;DHT22;2467;48.142;11.616;2023-01-19T00:12:07;0.70;99.90
4904;DHT22;2467;48.142;11.616;2023-01-19T00:12:40;0.70;99.90
4904;DHT22;2467;48.142;11.616;2023-01-19T00:13:13;0.70;99.90
4904;DHT22;2467;48.142;11.616;2023-01-19T00:13:45;0.70;99.90
4904;DHT22;2467;48.142;11.616;2023-01-19T00:14:21;0.70;99.90
4904;DHT22;2467;48.142;11.616;2023-01-19T00:14:53;0.80;99.90
4904;DHT22;2467;48.142;11.616;2023-01-19T00:15:24;0.80;99.90
4904;DHT22;2467;48.142;11.616;2023-01-19T00:15:57;0.90;99.90
4904;DHT22;2467;48.142;11.616;2023-01-19T00:16:29;0.90;99.90
4904;DHT22;2467;48.142;11.616;2023-01-19T00:17:01;0.90;99.90
4904;DHT22;2467;48.142;11.616;2023-01-19T00:17:34;0.90;99.90
4904;DHT22;2467;48.142;11.616;2023-01-19T00:18:06;0.90;99.90
4904;DHT22;2467;48.142;11.616;2023-01-19T00:18:41;0.90;99.90
4904;DHT22;2467;48.142;11.616;2023-01-19T00:19:14;0.90;99.90
4904;DHT22;2467;48.142;11.616;2023-01-19T00:19:46;0.90;99.90
4904;DHT22;2467;48.142;11.616;2023-01-19T00:20:18;0.90;99.90
4904;DHT22;2467;48.142;11.616;2023-01-19T00:20:50;1.00;99.90
4904;DHT22;2467;48.142;11.616;2023-01-19T00:21:22;1.00;99.90
4904;DHT22;2467;48.142;11.616;2023-01-19T00:21:55;0.90;99.90
4904;DHT22;2467;48.142;11.616;2023-01-19T00:22:28;1.00;99.90
4904;DHT22;2467;48.142;11.616;2023-01-19T00:23:00;1.00;99.90
4904;DHT22;2467;48.142;11.616;2023-01-19T00:23:34;1.00;99.90
4904;DHT22;2467;48.142;11.616;2023-01-19T00:24:07;1.00;99.90
4904;DHT22;2467;48.142;11.616;2023-01-19T00:24:38;1.00;99.90
4904;DHT22;2467;48.142;11.616;2023-01-19T00:25:10;1.00;99.90
4904;DHT22;2467;48.142;11.616;2023-01-19T00:25:43;1.10;99.90
4904;DHT22;2467;48.142;11.616;2023-01-19T00:26:15;1.00;99.90
4904;DHT22;2467;48.142;11.616;2023-01-19T00:26:47;0.90;99.90
4904;DHT22;2467;48.142;11.616;2023-01-19T00:27:19;0.90;99.90
4904;DHT22;2467;48.142;11.616;2023-01-19T00:27:52;0.90;99.90
4904;DHT22;2467;48.142;11.616;2023-01-19T00:28:24;0.90;99.90
4904;DHT22;2467;48.142;11.616;2023-01-19T00:28:56;0.90;99.90
4904;DHT22;2467;48.142;11.616;2023-01-19T00:29:29;0.90;99.90
4904;DHT22;2467;48.142;11.616;2023-01-19T00:30:05;0.80;99.90
4904;DHT22;2467;48.142;11.616;2023-01-19T00:30:37;0.80;99.90
4904;DHT22;2467;48.142;11.616;2023-01-19T00:31:10;0.90;99.90
4904;DHT22;2467;48.142;11.616;2023-01-19T00:31:42;0.90;99.90
4904;DHT22;2467;48.142;11.616;2023-01-19T00:32:15;0.90;99.90
4904;DHT22;2467;48.142;11.616;2023-01-19T00:32:48;0.90;99.90
4904;DHT22;2467;48.142;11.616;2023-01-19T00:33:20;0.90;99.90
4904;DHT22;2467;48.142;11.616;2023-01-19T00:33:52;0.90;99.90
4904;DHT22;2467;48.142;11.616;2023-01-19T00:34:24;1.00;99.90
4904;DHT22;2467;48.142;11.616;2023-01-19T00:34:56;1.00;99.90
4904;DHT22;2467;48.142;11.616;2023-01-19T00:35:28;1.00;99.90
4904;DHT22;2467;48.142;11.616;2023-01-19T00:36:00;1.10;99.90
4904;DHT22;2467;48.142;11.616;2023-01-19T00:36:33;1.00;99.90
4904;DHT22;2467;48.142;11.616;2023-01-19T00:37:05;1.10;99.90
4904;DHT22;2467;48.142;11.616;2023-01-19T00:37:37;1.10;99.90
4904;DHT22;2467;48.142;11.616;2023-01-19T00:38:10;1.00;99.90
4904;DHT22;2467;48.142;11.616;2023-01-19T00:38:44;1.00;99.90
4904;DHT22;2467;48.142;11.616;2023-01-19T00:39:15;1.00;99.90
4904;DHT22;2467;48.142;11.616;2023-01-19T00:39:48;1.00;99.90
4904;DHT22;2467;48.142;11.616;2023-01-19T00:40:20;1.00;99.90
4904;DHT22;2467;48.142;11.616;2023-01-19T00:40:52;0.90;99.90
4904;DHT22;2467;48.142;11.616;2023-01-19T00:41:25;0.90;99.90
4904;DHT22;2467;48.142;11.616;2023-01-19T00:42:12;0.90;99.90
4904;DHT22;2467;48.142;11.616;2023-01-19T00:43:03;0.90;99.90
4904;DHT22;2467;48.142;11.616;2023-01-19T00:43:35;0.90;99.90
4904;DHT22;2467;48.142;11.616;2023-01-19T00:44:08;0.90;99.90
4904;DHT22;2467;48.142;11.616;2023-01-19T00:44:40;0.90;99.90
4904;DHT22;2467;48.142;11.616;2023-01-19T00:45:13;0.90;99.90
4904;DHT22;2467;48.142;11.616;2023-01-19T00:45:46;1.00;99.90
4904;DHT22;2467;48.142;11.616;2023-01-19T00:46:19;0.90;99.90
4904;DHT22;2467;48.142;11.616;2023-01-19T00:46:50;0.90;99.90
4904;DHT22;2467;48.142;11.616;2023-01-19T00:47:22;0.90;99.90
4904;DHT22;2467;48.142;11.616;2023-01-19T00:47:54;1.00;99.90
4904;DHT22;2467;48.142;11.616;2023-01-19T00:48:28;1.10;99.90
4904;DHT22;2467;48.142;11.616;2023-01-19T00:49:01;1.10;99.90
4904;DHT22;2467;48.142;11.616;2023-01-19T00:49:33;1.10;99.90
4904;DHT22;2467;48.142;11.616;2023-01-19T00:50:07;1.10;99.90
4904;DHT22;2467;48.142;11.616;2023-01-19T00:50:42;1.10;99.90
4904;DHT22;2467;48.142;11.616;2023-01-19T00:51:14;1.10;99.90
4904;DHT22;2467;48.142;11.616;2023-01-19T00:51:46;1.10;99.90
4904;DHT22;2467;48.142;11.616;2023-01-19T00:52:18;1.10;99.90
4904;DHT22;2467;48.142;11.616;2023-01-19T00:52:51;1.10;99.90
4904;DHT22;2467;48.142;11.616;2023-01-19T00:53:23;1.10;99.90
4904;DHT22;2467;48.142;11.616;2023-01-19T00:53:57;1.10;99.90
4904;DHT22;2467;48.142;11.616;2023-01-19T00:54:30;1.10;99.90
4904;DHT22;2467;48.142;11.616;2023-01-19T00:55:02;1.00;99.90
4904;DHT22;2467;48.142;11.616;2023-01-19T00:55:35;1.10;99.90
4904;DHT22;2467;48.142;11.616;2023-01-19T00:56:07;1.10;99.90
4904;DHT22;2467;48.142;11.616;2023-01-19T00:56:40;1.10;99.90
4904;DHT22;2467;48.142;11.616;2023-01-19T00:57:11;1.10;99.90
4904;DHT22;2467;48.142;11.616;2023-01-19T00:57:43;1.10;99.90
4904;DHT22;2467;48.142;11.616;2023-01-19T00:58:15;1.10;99.90
4904;DHT22;2467;48.142;11.616;2023-01-19T00:58:48;1.10;99.90
4904;DHT22;2467;48.142;11.616;2023-01-19T00:59:20;1.10;99.90
4904;DHT22;2467;48.142;11.616;2023-01-19T00:59:52;1.10;99.90
4904;DHT22;2467;48.142;11.616;2023-01-19T01:00:25;1.00;99.90
4904;DHT22;2467;48.142;11.616;2023-01-19T01:00:57;1.00;99.90
4904;DHT22;2467;48.142;11.616;2023-01-19T01:01:34;1.00;99.90
4904;DHT22;2467;48.142;11.616;2023-01-19T01:02:17;1.00;99.90
4904;DHT22;2467;48.142;11.616;2023-01-19T01:02:50;1.00;99.90
4904;DHT22;2467;48.142;11.616;2023-01-19T01:03:23;0.90;99.90
4904;DHT22;2467;48.142;11.616;2023-01-19T01:03:58;0.90;99.90
4904;DHT22;2467;48.142;11.616;2023-01-19T01:04:30;1.00;99.90
4904;DHT22;2467;48.142;11.616;2023-01-19T01:05:04;0.90;99.90
4904;DHT22;2467;48.142;11.616;2023-01-19T01:05:39;1.00;99.90
4904;DHT22;2467;48.142;11.616;2023-01-19T01:06:12;1.00;99.90
4904;DHT22;2467;48.142;11.616;2023-01-19T01:06:44;1.00;99.90
4904;DHT22;2467;48.142;11.616;2023-01-19T01:07:16;1.00;99.90
4904;DHT22;2467;48.142;11.616;2023-01-19T01:07:49;1.00;99.90
4904;DHT22;2467;48.142;11.616;2023-01-19T01:08:21;1.00;99.90
4904;DHT22;2467;48.142;11.616;2023-01-19T01:08:54;1.10;99.90
4904;DHT22;2467;48.142;11.616;2023-01-19T01:09:27;1.10;99.90
4904;DHT22;2467;48.142;11.616;2023-01-19T01:09:59;1.10;99.90
4904;DHT22;2467;48.142;11.616;2023-01-19T01:10:32;1.10;99.90
4904;DHT22;2467;48.142;11.616;2023-01-19T01:11:04;1.10;99.90
4904;DHT22;2467;48.142;11.616;2023-01-19T01:11:37;1.10;99.90
4904;DHT22;2467;48.142;11.616;2023-01-19T01:12:09;1.10;99.90
4904;DHT22;2467;48.142;11.616;2023-01-19T01:12:41;1.10;99.90
4904;DHT22;2467;48.142;11.616;2023-01-19T01:13:28;1.00;99.90
4904;DHT22;2467;48.142;11.616;2023-01-19T01:14:01;1.00;99.90
4904;DHT22;2467;48.142;11.616;2023-01-19T01:14:34;1.00;99.90
4904;DHT22;2467;48.142;11.616;2023-01-19T01:15:08;1.00;99.90
4904;DHT22;2467;48.142;11.616;2023-01-19T01:15:41;0.90;99.90
4904;DHT22;2467;48.142;11.616;2023-01-19T01:16:14;0.90;99.90
4904;DHT22;2467;48.142;11.616;2023-01-19T01:16:47;0.90;99.90
4904;DHT22;2467;48.142;11.616;2023-01-19T01:17:19;0.90;99.90
4904;DHT22;2467;48.142;11.616;2023-01-19T01:17:55;0.90;99.90
4904;DHT22;2467;48.142;11.616;2023-01-19T01:18:28;1.00;99.90
4904;DHT22;2467;48.142;11.616;2023-01-19T01:19:00;1.00;99.90
4904;DHT22;2467;48.142;11.616;2023-01-19T01:19:32;1.00;99.90
4904;DHT22;2467;48.142;11.616;2023-01-19T01:20:05;1.00;99.90
4904;DHT22;2467;48.142;11.616;2023-01-19T01:20:37;1.00;99.90
4904;DHT22;2467;48.142;11.616;2023-01-19T01:21:09;1.00;99.90
4904;DHT22;2467;48.142;11.616;2023-01-19T01:21:44;1.00;99.90
4904;DHT22;2467;48.142;11.616;2023-01-19T01:22:15;1.10;99.90
4904;DHT22;2467;48.142;11.616;2023-01-19T01:22:49;1.00;99.90
4904;DHT22;2467;48.142;11.616;2023-01-19T01:23:22;1.10;99.90
4904;DHT22;2467;48.142;11.616;2023-01-19T01:23:54;1.10;99.90
4904;DHT22;2467;48.142;11.616;2023-01-19T01:24:27;1.10;99.90
4904;DHT22;2467;48.142;11.616;2023-01-19T01:25:00;1.20;99.90
4904;DHT22;2467;48.142;11.616;2023-01-19T01:25:32;1.20;99.90
4904;DHT22;2467;48.142;11.616;2023-01-19T01:26:08;1.10;99.90
4904;DHT22;2467;48.142;11.616;2023-01-19T01:26:42;1.10;99.90
4904;DHT22;2467;48.142;11.616;2023-01-19T01:27:14;0.90;99.90
4904;DHT22;2467;48.142;11.616;2023-01-19T01:27:46;1.10;99.90
4904;DHT22;2467;48.142;11.616;2023-01-19T01:28:18;1.00;99.90
4904;DHT22;2467;48.142;11.616;2023-01-19T01:28:50;1.00;99.90
4904;DHT22;2467;48.142;11.616;2023-01-19T01:29:22;1.00;99.90
4904;DHT22;2467;48.142;11.616;2023-01-19T01:29:55;1.00;99.90
4904;DHT22;2467;48.142;11.616;2023-01-19T01:30:27;1.00;99.90
4904;DHT22;2467;48.142;11.616;2023-01-19T01:30:58;1.00;99.90
4904;DHT22;2467;48.142;11.616;2023-01-19T01:31:32;1.00;99.90
4904;DHT22;2467;48.142;11.616;2023-01-19T01:32:04;0.90;99.90
4904;DHT22;2467;48.142;11.616;2023-01-19T01:32:35;0.90;99.90
4904;DHT22;2467;48.142;11.616;2023-01-19T01:33:08;0.90;99.90
4904;DHT22;2467;48.142;11.616;2023-01-19T01:33:41;0.90;99.90
4904;DHT22;2467;48.142;11.616;2023-01-19T01:34:14;0.90;99.90
4904;DHT22;2467;48.142;11.616;2023-01-19T01:34:47;0.90;99.90
4904;DHT22;2467;48.142;11.616;2023-01-19T01:35:19;0.90;99.90
4904;DHT22;2467;48.142;11.616;2023-01-19T01:35:52;0.90;99.90
4904;DHT22;2467;48.142;11.616;2023-01-19T01:36:24;0.80;99.90
4904;DHT22;2467;48.142;11.616;2023-01-19T01:36:59;0.80;99.90
4904;DHT22;2467;48.142;11.616;2023-01-19T01:37:32;0.80;99.90
4904;DHT22;2467;48.142;11.616;2023-01-19T01:38:04;0.90;99.90
4904;DHT22;2467;48.142;11.616;2023-01-19T01:38:36;0.90;99.90
4904;DHT22;2467;48.142;11.616;2023-01-19T01:39:09;0.90;99.90
4904;DHT22;2467;48.142;11.616;2023-01-19T01:39:42;0.90;99.90
4904;DHT22;2467;48.142;11.616;2023-01-19T01:40:16;0.80;99.90
4904;DHT22;2467;48.142;11.616;2023-01-19T01:40:49;0.90;99.90
4904;DHT22;2467;48.142;11.616;2023-01-19T01:41:21;0.80;99.90
4904;DHT22;2467;48.142;11.616;2023-01-19T01:41:56;0.90;99.90
4904;DHT22;2467;48.142;11.616;2023-01-19T01:42:30;0.90;99.90
4904;DHT22;2467;48.142;11.616;2023-01-19T01:43:02;0.90;99.90
4904;DHT22;2467;48.142;11.616;2023-01-19T01:43:46;0.90;99.90
4904;DHT22;2467;48.142;11.616;2023-01-19T01:44:45;0.90;99.90
4904;DHT22;2467;48.142;11.616;2023-01-19T01:45:29;0.90;99.90
4904;DHT22;2467;48.142;11.616;2023-01-19T01:46:02;0.90;99.90
4904;DHT22;2467;48.142;11.616;2023-01-19T01:46:34;1.00;99.90
4904;DHT22;2467;48.142;11.616;2023-01-19T01:47:06;1.00;99.90
4904;DHT22;2467;48.142;11.616;2023-01-19T01:47:41;1.00;99.90
4904;DHT22;2467;48.142;11.616;2023-01-19T01:48:16;1.00;99.90
4904;DHT22;2467;48.142;11.616;2023-01-19T01:48:53;1.00;99.90
4904;DHT22;2467;48.142;11.616;2023-01-19T01:49:27;1.00;99.90
4904;DHT22;2467;48.142;11.616;2023-01-19T01:50:04;1.00;99.90
4904;DHT22;2467;48.142;11.616;2023-01-19T01:50:40;1.00;99.90
4904;DHT22;2467;48.142;11.616;2023-01-19T01:51:39;1.00;99.90
4904;DHT22;2467;48.142;11.616;2023-01-19T01:52:13;1.10;99.90
4904;DHT22;2467;48.142;11.616;2023-01-19T01:52:49;1.10;99.90
4904;DHT22;2467;48.142;11.616;2023-01-19T01:53:38;1.10;99.90
4904;DHT22;2467;48.142;11.616;2023-01-19T01:54:16;1.10;99.90
4904;DHT22;2467;48.142;11.616;2023-01-19T01:54:51;1.10;99.90
4904;DHT22;2467;48.142;11.616;2023-01-19T01:55:24;1.10;99.90
4904;DHT22;2467;48.142;11.616;2023-01-19T01:55:58;1.10;99.90
4904;DHT22;2467;48.142;11.616;2023-01-19T01:56:33;1.20;99.90
4904;DHT22;2467;48.142;11.616;2023-01-19T01:57:07;1.20;99.90
4904;DHT22;2467;48.142;11.616;2023-01-19T01:57:45;1.20;99.90
4904;DHT22;2467;48.142;11.616;2023-01-19T01:58:18;1.20;99.90
4904;DHT22;2467;48.142;11.616;2023-01-19T01:58:52;1.20;99.90
4904;DHT22;2467;48.142;11.616;2023-01-19T01:59:25;1.20;99.90
4904;DHT22;2467;48.142;11.616;2023-01-19T01:59:58;1.20;99.90
4904;DHT22;2467;48.142;11.616;2023-01-19T02:00:31;1.30;99.90
4904;DHT22;2467;48.142;11.616;2023-01-19T02:01:24;1.30;99.90
4904;DHT22;2467;48.142;11.616;2023-01-19T02:02:17;1.30;99.90
4904;DHT22;2467;48.142;11.616;2023-01-19T02:03:08;1.30;99.90
4904;DHT22;2467;48.142;11.616;2023-01-19T02:03:40;1.30;99.90
4904;DHT22;2467;48.142;11.616;2023-01-19T02:04:12;1.30;99.90
4904;DHT22;2467;48.142;11.616;2023-01-19T02:04:47;1.30;99.90
4904;DHT22;2467;48.142;11.616;2023-01-19T02:05:24;1.30;99.90
4904;DHT22;2467;48.142;11.616;2023-01-19T02:05:59;1.30;99.90
4904;DHT22;2467;48.142;11.616;2023-01-19T02:06:33;1.30;99.90
4904;DHT22;2467;48.142;11.616;2023-01-19T02:07:05;1.20;99.90
4904;DHT22;2467;48.142;11.616;2023-01-19T02:07:58;1.20;99.90
4904;DHT22;2467;48.142;11.616;2023-01-19T02:08:53;1.20;99.90
4904;DHT22;2467;48.142;11.616;2023-01-19T02:09:46;1.20;99.90
4904;DHT22;2467;48.142;11.616;2023-01-19T02:10:40;1.10;99.90
4904;DHT22;2467;48.142;11.616;2023-01-19T02:11:31;1.10;99.90
4904;DHT22;2467;48.142;11.616;2023-01-19T02:12:22;1.10;99.90
4904;DHT22;2467;48.142;11.616;2023-01-19T02:13:13;1.10;99.90
4904;DHT22;2467;48.142;11.616;2023-01-19T02:13:48;1.10;99.90
4904;DHT22;2467;48.142;11.616;2023-01-19T02:14:20;1.10;99.90
4904;DHT22;2467;48.142;11.616;2023-01-19T02:14:52;1.10;99.90
4904;DHT22;2467;48.142;11.616;2023-01-19T02:15:26;1.10;99.90
4904;DHT22;2467;48.142;11.616;2023-01-19T02:15:59;1.10;99.90
4904;DHT22;2467;48.142;11.616;2023-01-19T02:16:34;1.10;99.90
4904;DHT22;2467;48.142;11.616;2023-01-19T02:17:07;1.10;99.90
4904;DHT22;2467;48.142;11.616;2023-01-19T02:17:39;1.10;99.90
4904;DHT22;2467;48.142;11.616;2023-01-19T02:18:11;1.10;99.90
4904;DHT22;2467;48.142;11.616;2023-01-19T02:18:44;1.10;99.90
4904;DHT22;2467;48.142;11.616;2023-01-19T02:19:21;1.10;99.90
4904;DHT22;2467;48.142;11.616;2023-01-19T02:19:55;1.10;99.90
4904;DHT22;2467;48.142;11.616;2023-01-19T02:20:29;1.10;99.90
4904;DHT22;2467;48.142;11.616;2023-01-19T02:21:18;1.10;99.90
4904;DHT22;2467;48.142;11.616;2023-01-19T02:21:54;1.10;99.90
4904;DHT22;2467;48.142;11.616;2023-01-19T02:22:32;1.00;99.90
4904;DHT22;2467;48.142;11.616;2023-01-19T02:23:13;1.00;99.90
4904;DHT22;2467;48.142;11.616;2023-01-19T02:23:51;1.00;99.90
4904;DHT22;2467;48.142;11.616;2023-01-19T02:24:24;1.00;99.90
4904;DHT22;2467;48.142;11.616;2023-01-19T02:24:56;1.00;99.90
4904;DHT22;2467;48.142;11.616;2023-01-19T02:25:29;1.00;99.90
4904;DHT22;2467;48.142;11.616;2023-01-19T02:26:02;1.00;99.90
4904;DHT22;2467;48.142;11.616;2023-01-19T02:26:35;1.00;99.90
4904;DHT22;2467;48.142;11.616;2023-01-19T02:27:10;1.00;99.90
4904;DHT22;2467;48.142;11.616;2023-01-19T02:27:43;0.90;99.90
4904;DHT22;2467;48.142;11.616;2023-01-19T02:28:15;0.90;99.90
4904;DHT22;2467;48.142;11.616;2023-01-19T02:28:52;0.90;99.90
4904;DHT22;2467;48.142;11.616;2023-01-19T02:29:25;0.80;99.90
4904;DHT22;2467;48.142;11.616;2023-01-19T02:29:59;0.80;99.90
4904;DHT22;2467;48.142;11.616;2023-01-19T02:30:36;0.80;99.90
4904;DHT22;2467;48.142;11.616;2023-01-19T02:31:10;0.80;99.90
4904;DHT22;2467;48.142;11.616;2023-01-19T02:31:44;0.80;99.90
4904;DHT22;2467;48.142;11.616;2023-01-19T02:32:16;0.80;99.90
4904;DHT22;2467;48.142;11.616;2023-01-19T02:32:48;0.80;99.90
4904;DHT22;2467;48.142;11.616;2023-01-19T02:33:21;0.80;99.90
4904;DHT22;2467;48.142;11.616;2023-01-19T02:33:53;0.80;99.90
4904;DHT22;2467;48.142;11.616;2023-01-19T02:34:25;0.80;99.90
4904;DHT22;2467;48.142;11.616;2023-01-19T02:34:58;0.80;99.90
4904;DHT22;2467;48.142;11.616;2023-01-19T02:35:31;0.80;99.90
4904;DHT22;2467;48.142;11.616;2023-01-19T02:36:05;0.80;99.90
4904;DHT22;2467;48.142;11.616;2023-01-19T02:36:43;0.80;99.90
4904;DHT22;2467;48.142;11.616;2023-01-19T02:37:17;0.80;99.90
4904;DHT22;2467;48.142;11.616;2023-01-19T02:37:50;0.70;99.90
4904;DHT22;2467;48.142;11.616;2023-01-19T02:38:25;0.70;99.90
4904;DHT22;2467;48.142;11.616;2023-01-19T02:39:01;0.70;99.90
4904;DHT22;2467;48.142;11.616;2023-01-19T02:39:38;0.70;99.90
4904;DHT22;2467;48.142;11.616;2023-01-19T02:40:14;0.70;99.90
4904;DHT22;2467;48.142;11.616;2023-01-19T02:40:51;0.70;99.90
4904;DHT22;2467;48.142;11.616;2023-01-19T02:41:27;0.70;99.90
4904;DHT22;2467;48.142;11.616;2023-01-19T02:42:03;0.70;99.90
4904;DHT22;2467;48.142;11.616;2023-01-19T02:42:39;0.70;99.90
4904;DHT22;2467;48.142;11.616;2023-01-19T02:43:15;0.60;99.90
4904;DHT22;2467;48.142;11.616;2023-01-19T02:43:48;0.70;99.90
4904;DHT22;2467;48.142;11.616;2023-01-19T02:44:22;0.60;99.90
4904;DHT22;2467;48.142;11.616;2023-01-19T02:44:55;0.60;99.90
4904;DHT22;2467;48.142;11.616;2023-01-19T02:45:28;0.60;99.90
4904;DHT22;2467;48.142;11.616;2023-01-19T02:46:02;0.60;99.90
4904;DHT22;2467;48.142;11.616;2023-01-19T02:46:34;0.60;99.90
4904;DHT22;2467;48.142;11.616;2023-01-19T02:47:06;0.60;99.90
4904;DHT22;2467;48.142;11.616;2023-01-19T02:47:42;0.60;99.90
4904;DHT22;2467;48.142;11.616;2023-01-19T02:48:15;0.50;99.90
4904;DHT22;2467;48.142;11.616;2023-01-19T02:48:48;0.40;99.90
4904;DHT22;2467;48.142;11.616;2023-01-19T02:49:21;0.50;99.90
4904;DHT22;2467;48.142;11.616;2023-01-19T02:49:56;0.40;99.90
4904;DHT22;2467;48.142;11.616;2023-01-19T02:50:36;0.40;99.90
4904;DHT22;2467;48.142;11.616;2023-01-19T02:51:11;0.50;99.90
4904;DHT22;2467;48.142;11.616;2023-01-19T02:51:46;0.50;99.90
4904;DHT22;2467;48.142;11.616;2023-01-19T02:52:18;0.40;99.90
4904;DHT22;2467;48.142;11.616;2023-01-19T02:52:51;0.50;99.90
4904;DHT22;2467;48.142;11.616;2023-01-19T02:54:43;0.50;99.90
4904;DHT22;2467;48.142;11.616;2023-01-19T02:55:18;0.50;99.90
4904;DHT22;2467;48.142;11.616;2023-01-19T02:55:56;0.60;99.90
4904;DHT22;2467;48.142;11.616;2023-01-19T02:56:58;0.50;99.90
4904;DHT22;2467;48.142;11.616;2023-01-19T02:57:40;0.40;99.90
4904;DHT22;2467;48.142;11.616;2023-01-19T02:58:23;0.40;99.90
4904;DHT22;2467;48.142;11.616;2023-01-19T02:59:03;0.30;99.90
4904;DHT22;2467;48.142;11.616;2023-01-19T02:59:47;0.30;99.90
4904;DHT22;2467;48.142;11.616;2023-01-19T03:00:29;0.30;99.90
4904;DHT22;2467;48.142;11.616;2023-01-19T03:01:10;0.40;99.90
4904;DHT22;2467;48.142;11.616;2023-01-19T03:01:54;0.20;99.90
4904;DHT22;2467;48.142;11.616;2023-01-19T03:02:38;0.20;99.90
4904;DHT22;2467;48.142;11.616;2023-01-19T03:03:24;0.20;99.90
4904;DHT22;2467;48.142;11.616;2023-01-19T03:04:06;0.10;99.90
4904;DHT22;2467;48.142;11.616;2023-01-19T03:04:50;0.10;99.90
4904;DHT22;2467;48.142;11.616;2023-01-19T03:05:32;0.10;99.90
4904;DHT22;2467;48.142;11.616;2023-01-19T03:06:10;0.20;99.90
4904;DHT22;2467;48.142;11.616;2023-01-19T03:06:47;0.20;99.90
4904;DHT22;2467;48.142;11.616;2023-01-19T03:07:29;0.30;99.90
4904;DHT22;2467;48.142;11.616;2023-01-19T03:08:10;0.30;99.90
4904;DHT22;2467;48.142;11.616;2023-01-19T03:08:49;0.40;99.90
4904;DHT22;2467;48.142;11.616;2023-01-19T03:09:27;0.40;99.90
4904;DHT22;2467;48.142;11.616;2023-01-19T03:10:07;0.30;99.90
4904;DHT22;2467;48.142;11.616;2023-01-19T03:10:47;0.40;99.90
4904;DHT22;2467;48.142;11.616;2023-01-19T03:11:27;0.40;99.90
4904;DHT22;2467;48.142;11.616;2023-01-19T03:12:03;0.40;99.90
4904;DHT22;2467;48.142;11.616;2023-01-19T03:12:44;0.40;99.90
4904;DHT22;2467;48.142;11.616;2023-01-19T03:13:22;0.40;99.90
4904;DHT22;2467;48.142;11.616;2023-01-19T03:14:01;0.40;99.90
4904;DHT22;2467;48.142;11.616;2023-01-19T03:14:39;0.40;99.90
4904;DHT22;2467;48.142;11.616;2023-01-19T03:15:17;0.40;99.90
4904;DHT22;2467;48.142;11.616;2023-01-19T03:15:54;0.40;99.90
4904;DHT22;2467;48.142;11.616;2023-01-19T03:16:31;0.40;99.90
4904;DHT22;2467;48.142;11.616;2023-01-19T03:17:09;0.40;99.90
4904;DHT22;2467;48.142;11.616;2023-01-19T03:17:44;0.40;99.90
4904;DHT22;2467;48.142;11.616;2023-01-19T03:18:20;0.50;99.90
4904;DHT22;2467;48.142;11.616;2023-01-19T03:18:57;0.50;99.90
4904;DHT22;2467;48.142;11.616;2023-01-19T03:19:33;0.60;99.90
4904;DHT22;2467;48.142;11.616;2023-01-19T03:20:07;0.60;99.90
4904;DHT22;2467;48.142;11.616;2023-01-19T03:20:42;0.70;99.90
4904;DHT22;2467;48.142;11.616;2023-01-19T03:21:15;0.70;99.90
4904;DHT22;2467;48.142;11.616;2023-01-19T03:21:53;0.70;99.90
4904;DHT22;2467;48.142;11.616;2023-01-19T03:22:28;0.70;99.90
4904;DHT22;2467;48.142;11.616;2023-01-19T03:23:03;0.70;99.90
4904;DHT22;2467;48.142;11.616;2023-01-19T03:23:38;0.70;99.90
4904;DHT22;2467;48.142;11.616;2023-01-19T03:24:14;0.70;99.90
4904;DHT22;2467;48.142;11.616;2023-01-19T03:24:47;0.70;99.90
4904;DHT22;2467;48.142;11.616;2023-01-19T03:25:23;0.70;99.90
4904;DHT22;2467;48.142;11.616;2023-01-19T03:25:58;0.70;99.90
4904;DHT22;2467;48.142;11.616;2023-01-19T03:26:35;0.70;99.90
4904;DHT22;2467;48.142;11.616;2023-01-19T03:27:11;0.70;99.90
4904;DHT22;2467;48.142;11.616;2023-01-19T03:27:45;0.70;99.90
4904;DHT22;2467;48.142;11.616;2023-01-19T03:28:19;0.70;99.90
4904;DHT22;2467;48.142;11.616;2023-01-19T03:28:53;0.70;99.90
4904;DHT22;2467;48.142;11.616;2023-01-19T03:29:29;0.70;99.90
4904;DHT22;2467;48.142;11.616;2023-01-19T03:30:06;0.70;99.90
4904;DHT22;2467;48.142;11.616;2023-01-19T03:30:42;0.70;99.90
4904;DHT22;2467;48.142;11.616;2023-01-19T03:31:19;0.70;99.90
4904;DHT22;2467;48.142;11.616;2023-01-19T03:31:52;0.70;99.90
4904;DHT22;2467;48.142;11.616;2023-01-19T03:32:30;0.70;99.90
4904;DHT22;2467;48.142;11.616;2023-01-19T03:33:08;0.70;99.90
4904;DHT22;2467;48.142;11.616;2023-01-19T03:33:44;0.60;99.90
4904;DHT22;2467;48.142;11.616;2023-01-19T03:34:18;0.60;99.90
4904;DHT22;2467;48.142;11.616;2023-01-19T03:34:55;0.60;99.90
4904;DHT22;2467;48.142;11.616;2023-01-19T03:35:31;0.60;99.90
4904;DHT22;2467;48.142;11.616;2023-01-19T03:36:10;0.60;99.90
4904;DHT22;2467;48.142;11.616;2023-01-19T03:36:46;0.60;99.90
4904;DHT22;2467;48.142;11.616;2023-01-19T03:37:20;0.60;99.90
4904;DHT22;2467;48.142;11.616;2023-01-19T03:37:55;0.70;99.90
4904;DHT22;2467;48.142;11.616;2023-01-19T03:38:31;0.70;99.90
4904;DHT22;2467;48.142;11.616;2023-01-19T03:39:05;0.70;99.90
4904;DHT22;2467;48.142;11.616;2023-01-19T03:39:40;0.70;99.90
4904;DHT22;2467;48.142;11.616;2023-01-19T03:40:12;0.70;99.90
4904;DHT22;2467;48.142;11.616;2023-01-19T03:40:46;0.70;99.90
4904;DHT22;2467;48.142;11.616;2023-01-19T03:41:21;0.70;99.90
4904;DHT22;2467;48.142;11.616;2023-01-19T03:41:58;0.70;99.90
4904;DHT22;2467;48.142;11.616;2023-01-19T03:42:33;0.70;99.90
4904;DHT22;2467;48.142;11.616;2023-01-19T03:43:07;0.70;99.90
4904;DHT22;2467;48.142;11.616;2023-01-19T03:43:40;0.60;99.90
4904;DHT22;2467;48.142;11.616;2023-01-19T03:44:13;0.70;99.90
4904;DHT22;2467;48.142;11.616;2023-01-19T03:44:46;0.60;99.90
4904;DHT22;2467;48.142;11.616;2023-01-19T03:45:21;0.60;99.90
4904;DHT22;2467;48.142;11.616;2023-01-19T03:45:55;0.60;99.90
4904;DHT22;2467;48.142;11.616;2023-01-19T03:46:29;0.60;99.90
4904;DHT22;2467;48.142;11.616;2023-01-19T03:47:03;0.60;99.90
4904;DHT22;2467;48.142;11.616;2023-01-19T03:47:35;0.60;99.90
4904;DHT22;2467;48.142;11.616;2023-01-19T03:48:08;0.60;99.90
4904;DHT22;2467;48.142;11.616;2023-01-19T03:48:40;0.60;99.90
4904;DHT22;2467;48.142;11.616;2023-01-19T03:49:12;0.60;99.90
4904;DHT22;2467;48.142;11.616;2023-01-19T03:49:46;0.60;99.90